createdAt,value
2023-04-09T00:00:14.204Z,6.80
2023-04-09T00:02:44.902Z,6.80
2023-04-09T00:05:14.721Z,6.80
2023-04-09T00:07:44.472Z,6.80
2023-04-09T00:10:13.337Z,6.80
2023-04-09T00:12:42.807Z,6.70
2023-04-09T00:15:20.546Z,6.80
2023-04-09T00:17:56.404Z,6.80
2023-04-09T00:20:24.870Z,6.80
2023-04-09T00:22:54.369Z,6.80
2023-04-09T00:25:22.744Z,6.80
2023-04-09T00:27:54.334Z,6.80
2023-04-09T00:30:23.039Z,6.80
2023-04-09T00:32:52.567Z,6.80
2023-04-09T00:35:22.519Z,6.80
2023-04-09T00:37:53.886Z,6.80
2023-04-09T00:40:22.093Z,6.70
2023-04-09T00:42:50.689Z,6.70
2023-04-09T00:45:18.873Z,6.70
2023-04-09T00:47:48.550Z,6.70
2023-04-09T00:50:20.031Z,6.70
2023-04-09T00:52:50.938Z,6.60
2023-04-09T00:55:20.117Z,6.70
2023-04-09T00:57:49.338Z,6.70
2023-04-09T01:00:17.966Z,6.70
2023-04-09T01:02:48.282Z,6.70
2023-04-09T01:05:16.964Z,6.70
2023-04-09T01:08:03.218Z,6.70
2023-04-09T01:10:39.538Z,6.70
2023-04-09T01:13:13.111Z,6.70
2023-04-09T01:15:47.024Z,6.70
2023-04-09T01:18:24.826Z,6.70
2023-04-09T01:20:58.563Z,6.70
2023-04-09T01:23:45.262Z,6.60
2023-04-09T01:26:25.978Z,6.60
2023-04-09T01:28:58.743Z,6.70
2023-04-09T01:31:32.972Z,6.70
2023-04-09T01:34:03.719Z,6.70
2023-04-09T01:36:33.751Z,6.70
2023-04-09T01:39:03.586Z,6.60
2023-04-09T01:41:34.932Z,6.70
2023-04-09T01:44:07.273Z,6.60
2023-04-09T01:46:38.087Z,6.60
2023-04-09T01:49:07.988Z,6.60
2023-04-09T01:51:38.227Z,6.60
2023-04-09T01:54:07.595Z,6.60
2023-04-09T01:56:42.989Z,6.60
2023-04-09T01:59:12.793Z,6.60
2023-04-09T02:01:48.158Z,6.50
2023-04-09T02:04:24.003Z,6.60
2023-04-09T02:07:04.468Z,6.60
2023-04-09T02:09:37.633Z,6.50
2023-04-09T02:12:08.204Z,6.50
2023-04-09T02:14:40.010Z,6.60
2023-04-09T02:17:09.814Z,6.60
2023-04-09T02:19:41.882Z,6.60
2023-04-09T02:22:10.813Z,6.50
2023-04-09T02:24:40.649Z,6.50
2023-04-09T02:27:10.280Z,6.50
2023-04-09T02:29:44.237Z,6.60
2023-04-09T02:32:12.422Z,6.50
2023-04-09T02:34:40.744Z,6.60
2023-04-09T02:37:09.084Z,6.50
2023-04-09T02:39:37.306Z,6.60
2023-04-09T02:42:07.835Z,6.50
2023-04-09T02:44:36.211Z,6.60
2023-04-09T02:47:06.176Z,6.50
2023-04-09T02:49:34.377Z,6.50
2023-04-09T02:52:04.265Z,6.50
2023-04-09T02:54:33.770Z,6.50
2023-04-09T02:57:02.056Z,6.50
2023-04-09T02:59:33.013Z,6.50
2023-04-09T03:02:01.250Z,6.40
2023-04-09T03:04:32.127Z,6.50
2023-04-09T03:07:00.501Z,6.50
2023-04-09T03:09:30.799Z,6.50
2023-04-09T03:12:00.173Z,6.60
2023-04-09T03:14:28.422Z,6.50
2023-04-09T03:16:59.984Z,6.50
2023-04-09T03:19:28.480Z,6.40
2023-04-09T03:21:59.278Z,6.50
2023-04-09T03:24:29.719Z,6.50
2023-04-09T03:26:59.142Z,6.50
2023-04-09T03:29:27.320Z,6.40
2023-04-09T03:31:55.539Z,6.40
2023-04-09T03:34:24.938Z,6.40
2023-04-09T03:36:54.355Z,6.30
2023-04-09T03:39:24.194Z,6.40
2023-04-09T03:41:53.592Z,6.30
2023-04-09T03:44:24.145Z,6.10
2023-04-09T03:46:52.425Z,6.10
2023-04-09T03:49:23.548Z,6.10
2023-04-09T03:51:54.129Z,6.10
2023-04-09T03:54:25.049Z,6.00
2023-04-09T03:56:56.380Z,6.00
2023-04-09T03:59:26.311Z,6.10
2023-04-09T04:01:56.128Z,6.10
2023-04-09T04:04:25.749Z,6.10
2023-04-09T04:06:54.018Z,6.10
2023-04-09T04:09:24.278Z,6.10
2023-04-09T04:11:53.604Z,6.10
2023-04-09T04:14:21.830Z,6.00
2023-04-09T04:16:51.053Z,5.90
2023-04-09T04:19:20.882Z,5.90
2023-04-09T04:21:49.047Z,5.90
2023-04-09T04:24:18.394Z,6.00
2023-04-09T04:26:48.009Z,6.00
2023-04-09T04:29:18.801Z,6.10
2023-04-09T04:31:48.322Z,6.10
2023-04-09T04:34:16.818Z,6.10
2023-04-09T04:36:47.339Z,6.10
2023-04-09T04:39:15.673Z,6.20
2023-04-09T04:41:43.831Z,6.20
2023-04-09T04:44:17.653Z,6.20
2023-04-09T04:46:45.826Z,6.00
2023-04-09T04:49:14.032Z,5.90
2023-04-09T04:51:42.261Z,5.90
2023-04-09T04:54:10.498Z,5.90
2023-04-09T04:56:38.902Z,6.00
2023-04-09T04:59:08.234Z,6.10
2023-04-09T05:01:38.932Z,6.10
2023-04-09T05:04:07.155Z,6.10
2023-04-09T05:06:36.714Z,6.10
2023-04-09T05:09:05.008Z,6.10
2023-04-09T05:11:34.186Z,6.10
2023-04-09T05:14:02.413Z,6.20
2023-04-09T05:16:30.747Z,6.00
2023-04-09T05:19:00.519Z,6.00
2023-04-09T05:21:29.042Z,6.00
2023-04-09T05:23:59.402Z,6.00
2023-04-09T05:26:27.794Z,6.00
2023-04-09T05:29:01.662Z,5.90
2023-04-09T05:31:30.103Z,6.00
2023-04-09T05:34:02.771Z,6.00
2023-04-09T05:36:36.904Z,6.00
2023-04-09T05:39:05.293Z,5.90
2023-04-09T05:41:33.749Z,6.00
2023-04-09T05:44:03.078Z,6.00
2023-04-09T05:46:31.769Z,5.90
2023-04-09T05:49:01.368Z,5.90
2023-04-09T05:51:29.592Z,5.90
2023-04-09T05:53:58.003Z,6.00
2023-04-09T05:56:28.201Z,5.90
2023-04-09T05:58:56.597Z,6.00
2023-04-09T06:01:24.954Z,6.00
2023-04-09T06:03:55.539Z,6.10
2023-04-09T06:06:36.819Z,6.10
2023-04-09T06:09:05.326Z,6.10
2023-04-09T06:11:34.300Z,6.10
2023-04-09T06:14:03.855Z,6.20
2023-04-09T06:16:35.104Z,6.20
2023-04-09T06:19:06.856Z,6.30
2023-04-09T06:21:39.066Z,6.20
2023-04-09T06:24:10.011Z,6.30
2023-04-09T06:26:38.201Z,6.40
2023-04-09T06:29:06.463Z,6.50
2023-04-09T06:31:36.052Z,6.60
2023-04-09T06:34:16.491Z,6.60
2023-04-09T06:36:46.057Z,6.50
2023-04-09T06:39:14.178Z,6.60
2023-04-09T06:41:42.387Z,6.70
2023-04-09T06:44:10.797Z,6.90
2023-04-09T06:47:13.818Z,6.90
2023-04-09T06:52:37.630Z,7.10
2023-04-09T06:55:06.569Z,7.30
2023-04-09T06:57:34.743Z,7.20
2023-04-09T07:00:10.921Z,7.30
2023-04-09T07:02:39.488Z,7.50
2023-04-09T07:05:08.738Z,7.60
2023-04-09T07:07:38.958Z,7.70
2023-04-09T07:10:09.527Z,7.70
2023-04-09T07:12:37.719Z,7.80
2023-04-09T07:15:10.192Z,7.90
2023-04-09T07:17:38.579Z,7.90
2023-04-09T07:20:07.628Z,8.00
2023-04-09T07:22:37.640Z,8.00
2023-04-09T07:25:06.636Z,8.20
2023-04-09T07:27:34.912Z,8.30
2023-04-09T07:30:03.498Z,8.50
2023-04-09T07:32:32.216Z,8.50
2023-04-09T07:35:00.670Z,8.60
2023-04-09T07:37:29.028Z,8.90
2023-04-09T07:39:58.857Z,8.90
2023-04-09T07:42:27.343Z,9.20
2023-04-09T07:44:56.768Z,9.20
2023-04-09T07:47:25.243Z,9.00
2023-04-09T07:49:53.506Z,9.30
2023-04-09T07:52:21.864Z,9.70
2023-04-09T07:54:50.155Z,9.80
2023-04-09T07:57:19.754Z,10.40
2023-04-09T07:59:48.236Z,10.90
2023-04-09T08:02:16.531Z,11.50
2023-04-09T08:04:44.952Z,12.60
2023-04-09T08:07:21.690Z,11.20
2023-04-09T08:09:50.009Z,12.60
2023-04-09T08:12:19.582Z,14.40
2023-04-09T08:14:51.942Z,14.90
2023-04-09T08:17:20.136Z,16.10
2023-04-09T08:19:49.655Z,16.70
2023-04-09T08:22:18.101Z,17.60
2023-04-09T08:24:46.206Z,16.30
2023-04-09T08:27:14.420Z,13.90
2023-04-09T08:29:44.085Z,15.70
2023-04-09T08:32:12.876Z,16.90
2023-04-09T08:34:41.478Z,17.50
2023-04-09T08:37:09.931Z,16.60
2023-04-09T08:39:38.110Z,15.50
2023-04-09T08:42:08.248Z,14.50
2023-04-09T08:44:37.210Z,16.00
2023-04-09T08:47:10.191Z,16.00
2023-04-09T08:49:40.123Z,12.40
2023-04-09T08:52:08.838Z,14.40
2023-04-09T08:54:37.427Z,16.30
2023-04-09T08:57:08.925Z,16.90
2023-04-09T08:59:38.002Z,14.90
2023-04-09T09:02:12.290Z,16.20
2023-04-09T09:04:47.636Z,14.40
2023-04-09T09:07:16.532Z,13.30
2023-04-09T09:09:56.255Z,12.70
2023-04-09T09:12:35.811Z,14.00
2023-04-09T09:15:07.254Z,12.60
2023-04-09T09:17:56.172Z,11.10
2023-04-09T09:20:30.113Z,11.70
2023-04-09T09:22:58.524Z,11.60
2023-04-09T09:25:51.507Z,10.90
2023-04-09T09:28:19.911Z,11.50
2023-04-09T09:30:49.378Z,12.20
2023-04-09T09:33:19.245Z,11.70
2023-04-09T09:35:51.780Z,11.10
2023-04-09T09:38:20.119Z,11.50
2023-04-09T09:40:49.054Z,11.40
2023-04-09T09:43:18.841Z,11.50
2023-04-09T09:45:48.638Z,11.50
2023-04-09T09:48:18.472Z,12.00
2023-04-09T09:51:24.395Z,11.50
2023-04-09T09:54:00.046Z,11.10
2023-04-09T09:56:33.588Z,10.70
2023-04-09T09:59:19.643Z,10.80
2023-04-09T10:01:51.449Z,11.50
2023-04-09T10:04:43.576Z,11.80
2023-04-09T10:07:15.205Z,11.80
2023-04-09T10:09:48.512Z,11.50
2023-04-09T10:12:23.061Z,11.40
2023-04-09T10:15:41.260Z,11.20
2023-04-09T10:18:09.823Z,11.30
2023-04-09T10:20:45.014Z,11.80
2023-04-09T10:23:21.089Z,11.60
2023-04-09T10:25:49.444Z,11.30
2023-04-09T10:28:19.680Z,11.30
2023-04-09T10:30:51.044Z,11.40
2023-04-09T10:33:26.718Z,11.20
2023-04-09T10:36:00.727Z,11.30
2023-04-09T10:38:37.265Z,11.30
2023-04-09T10:41:17.739Z,11.50
2023-04-09T10:43:48.846Z,11.60
2023-04-09T10:46:31.508Z,11.40
2023-04-09T10:49:13.743Z,11.60
2023-04-09T10:52:17.117Z,11.80
2023-04-09T10:55:34.265Z,11.90
2023-04-09T10:58:02.988Z,12.10
2023-04-09T11:00:31.279Z,12.70
2023-04-09T11:03:22.525Z,12.30
2023-04-09T11:05:55.081Z,12.00
2023-04-09T11:08:49.962Z,12.60
2023-04-09T11:11:20.082Z,11.80
2023-04-09T11:13:50.123Z,12.30
2023-04-09T11:16:22.827Z,12.40
2023-04-09T11:18:56.642Z,12.40
2023-04-09T11:21:29.679Z,12.30
2023-04-09T11:24:01.036Z,12.20
2023-04-09T11:26:40.162Z,12.40
2023-04-09T11:29:09.295Z,12.40
2023-04-09T11:34:41.590Z,12.40
2023-04-09T11:37:16.899Z,12.60
2023-04-09T11:39:48.103Z,12.60
2023-04-09T11:42:17.622Z,12.90
2023-04-09T11:44:46.468Z,13.00
2023-04-09T11:47:17.032Z,13.10
2023-04-09T11:49:46.773Z,12.90
2023-04-09T11:52:17.128Z,12.50
2023-04-09T11:54:52.721Z,12.80
2023-04-09T11:57:21.550Z,12.90
2023-04-09T11:59:53.363Z,12.20
2023-04-09T12:02:22.004Z,12.70
2023-04-09T12:04:55.430Z,12.40
2023-04-09T12:07:25.395Z,12.50
2023-04-09T12:09:55.251Z,12.90
2023-04-09T12:12:28.397Z,13.00
2023-04-09T12:14:59.001Z,12.40
2023-04-09T12:17:27.985Z,12.20
2023-04-09T12:19:56.175Z,12.50
2023-04-09T12:22:24.543Z,12.70
2023-04-09T12:24:55.550Z,12.70
2023-04-09T12:27:23.674Z,12.80
2023-04-09T12:29:52.028Z,13.30
2023-04-09T12:32:20.639Z,13.70
2023-04-09T12:34:49.962Z,13.20
2023-04-09T12:37:18.179Z,13.70
2023-04-09T12:39:48.116Z,13.30
2023-04-09T12:42:19.529Z,13.40
2023-04-09T12:44:47.851Z,13.90
2023-04-09T12:47:17.564Z,13.90
2023-04-09T12:49:47.201Z,13.70
2023-04-09T12:52:24.820Z,13.30
2023-04-09T12:54:55.706Z,14.00
2023-04-09T12:57:25.351Z,14.20
2023-04-09T13:00:20.988Z,14.30
2023-04-09T13:02:52.755Z,14.60
2023-04-09T13:05:21.326Z,14.40
2023-04-09T13:07:49.801Z,14.50
2023-04-09T13:10:18.199Z,14.70
2023-04-09T13:12:48.128Z,14.20
2023-04-09T13:15:21.497Z,14.10
2023-04-09T13:17:50.891Z,14.90
2023-04-09T13:20:19.302Z,14.60
2023-04-09T13:22:49.084Z,14.70
2023-04-09T13:25:18.109Z,15.20
2023-04-09T13:27:50.724Z,15.30
2023-04-09T13:30:20.100Z,14.60
2023-04-09T13:32:48.921Z,14.90
2023-04-09T13:35:25.783Z,14.70
2023-04-09T13:37:56.307Z,14.30
2023-04-09T13:40:30.978Z,14.80
2023-04-09T13:43:03.851Z,14.50
2023-04-09T13:45:32.094Z,14.50
2023-04-09T13:48:01.283Z,15.00
2023-04-09T13:50:29.843Z,14.90
2023-04-09T13:52:58.238Z,14.60
2023-04-09T13:55:26.463Z,14.90
2023-04-09T13:57:57.749Z,14.40
2023-04-09T14:00:27.730Z,15.00
2023-04-09T14:02:56.027Z,14.70
2023-04-09T14:05:24.278Z,15.10
2023-04-09T14:07:52.554Z,15.50
2023-04-09T14:10:22.953Z,15.80
2023-04-09T14:12:52.108Z,15.80
2023-04-09T14:15:20.594Z,15.50
2023-04-09T14:17:52.526Z,15.00
2023-04-09T14:20:26.950Z,15.00
2023-04-09T14:22:56.258Z,15.10
2023-04-09T14:25:25.674Z,14.80
2023-04-09T14:27:54.936Z,14.40
2023-04-09T14:30:24.409Z,14.40
2023-04-09T14:32:56.589Z,14.30
2023-04-09T14:35:25.615Z,14.10
2023-04-09T14:37:53.766Z,14.30
2023-04-09T14:40:22.287Z,14.00
2023-04-09T14:42:51.044Z,14.20
2023-04-09T14:45:21.924Z,14.60
2023-04-09T14:47:56.054Z,14.40
2023-04-09T14:50:24.510Z,14.10
2023-04-09T14:52:53.816Z,14.10
2023-04-09T14:55:24.526Z,14.20
2023-04-09T14:57:52.670Z,14.30
2023-04-09T15:00:23.010Z,13.90
2023-04-09T15:02:52.100Z,14.10
2023-04-09T15:05:21.983Z,13.90
2023-04-09T15:08:07.057Z,14.10
2023-04-09T15:10:37.764Z,13.90
2023-04-09T15:13:07.813Z,13.70
2023-04-09T15:15:37.028Z,13.90
2023-04-09T15:18:06.803Z,13.90
2023-04-09T15:20:39.136Z,13.80
2023-04-09T15:23:08.380Z,13.70
2023-04-09T15:25:40.121Z,13.90
2023-04-09T15:28:08.596Z,14.30
2023-04-09T15:30:37.910Z,14.40
2023-04-09T15:33:06.335Z,14.40
2023-04-09T15:35:39.933Z,14.40
2023-04-09T15:38:09.789Z,14.20
2023-04-09T15:40:41.629Z,14.70
2023-04-09T15:43:12.288Z,14.50
2023-04-09T15:45:41.515Z,14.50
2023-04-09T15:48:10.105Z,14.30
2023-04-09T15:50:42.804Z,14.20
2023-04-09T15:53:14.386Z,14.10
2023-04-09T15:55:42.633Z,14.20
2023-04-09T15:58:12.946Z,14.30
2023-04-09T16:00:41.579Z,14.30
2023-04-09T16:03:09.728Z,14.00
2023-04-09T16:05:41.325Z,14.40
2023-04-09T16:08:24.670Z,14.20
2023-04-09T16:11:04.976Z,14.10
2023-04-09T16:13:41.648Z,14.20
2023-04-09T16:16:31.760Z,14.30
2023-04-09T16:22:12.229Z,14.20
2023-04-09T16:25:19.819Z,14.30
2023-04-09T16:28:11.615Z,14.20
2023-04-09T16:30:43.513Z,14.00
2023-04-09T16:33:13.074Z,14.30
2023-04-09T16:35:42.293Z,14.30
2023-04-09T16:38:35.682Z,14.10
2023-04-09T16:41:07.939Z,14.20
2023-04-09T16:44:15.526Z,14.10
2023-04-09T16:46:56.993Z,14.20
2023-04-09T16:50:05.781Z,14.00
2023-04-09T16:53:06.084Z,14.00
2023-04-09T16:55:38.357Z,14.00
2023-04-09T16:58:24.880Z,13.90
2023-04-09T17:01:20.753Z,13.80
2023-04-09T17:04:11.558Z,13.70
2023-04-09T17:06:55.255Z,13.40
2023-04-09T17:09:45.006Z,13.30
2023-04-09T17:12:41.688Z,13.30
2023-04-09T17:15:58.600Z,13.30
2023-04-09T17:18:38.026Z,13.30
2023-04-09T17:21:26.856Z,13.30
2023-04-09T17:23:57.000Z,13.20
2023-04-09T17:26:53.601Z,13.00
2023-04-09T17:30:13.201Z,13.00
2023-04-09T17:35:13.882Z,12.90
2023-04-09T17:38:00.048Z,12.80
2023-04-09T17:40:44.335Z,12.80
2023-04-09T17:43:34.091Z,12.70
2023-04-09T17:53:28.043Z,12.60
2023-04-09T17:56:17.053Z,12.60
2023-04-09T17:58:55.424Z,12.60
2023-04-09T18:01:47.559Z,12.50
2023-04-09T18:07:38.779Z,12.50
2023-04-09T18:10:40.527Z,12.40
2023-04-09T18:13:22.684Z,12.30
2023-04-09T18:16:02.729Z,12.20
2023-04-09T18:19:01.252Z,12.00
2023-04-09T18:21:50.164Z,11.90
2023-04-09T18:27:33.732Z,11.80
2023-04-09T18:30:20.617Z,11.60
2023-04-09T18:33:06.965Z,11.60
2023-04-09T18:36:08.820Z,11.40
2023-04-09T18:38:45.404Z,11.10
2023-04-09T18:41:43.419Z,10.80
2023-04-09T18:44:20.326Z,10.70
2023-04-09T18:47:02.055Z,10.50
2023-04-09T18:50:03.024Z,10.50
2023-04-09T18:52:47.565Z,10.40
2023-04-09T18:55:35.855Z,10.40
2023-04-09T18:58:20.693Z,10.30
2023-04-09T19:01:09.824Z,10.20
2023-04-09T19:03:52.174Z,10.20
2023-04-09T19:06:55.119Z,10.20
2023-04-09T19:10:09.911Z,10.10
2023-04-09T19:12:52.141Z,10.10
2023-04-09T19:15:29.807Z,10.00
2023-04-09T19:18:09.503Z,9.90
2023-04-09T19:20:46.719Z,9.80
2023-04-09T19:23:55.247Z,9.80
2023-04-09T19:26:39.559Z,9.80
2023-04-09T19:29:26.203Z,9.80
2023-04-09T19:32:09.538Z,9.60
2023-04-09T19:37:21.736Z,9.50
2023-04-09T19:40:07.385Z,9.50
2023-04-09T19:42:56.411Z,9.40
2023-04-09T19:45:38.522Z,9.40
2023-04-09T19:48:15.019Z,9.30
2023-04-09T19:51:09.664Z,9.30
2023-04-09T19:54:02.454Z,9.20
2023-04-09T19:57:01.218Z,9.20
2023-04-09T19:59:50.430Z,9.00
2023-04-09T20:02:20.222Z,8.90
2023-04-09T20:05:15.922Z,8.80
2023-04-09T20:07:48.633Z,8.80
2023-04-09T20:10:50.327Z,8.80
2023-04-09T20:16:22.930Z,8.70
2023-04-09T20:18:59.811Z,8.70
2023-04-09T20:22:34.100Z,8.60
2023-04-09T20:25:04.324Z,8.50
2023-04-09T20:27:41.422Z,8.40
2023-04-09T20:30:27.362Z,8.30
2023-04-09T20:33:10.515Z,8.20
2023-04-09T20:36:01.410Z,8.00
2023-04-09T20:38:43.547Z,7.90
2023-04-09T20:41:27.056Z,7.90
2023-04-09T20:44:11.864Z,7.80
2023-04-09T20:46:54.984Z,7.80
2023-04-09T20:49:52.946Z,7.80
2023-04-09T20:52:29.766Z,7.70
2023-04-09T20:55:15.610Z,7.70
2023-04-09T20:57:50.667Z,7.70
2023-04-09T21:00:36.537Z,7.70
2023-04-09T21:03:26.548Z,7.60
2023-04-09T21:06:19.522Z,7.50
2023-04-09T21:09:01.165Z,7.50
2023-04-09T21:11:37.175Z,7.40
2023-04-09T21:14:37.991Z,7.40
2023-04-09T21:17:18.861Z,7.40
2023-04-09T21:19:56.704Z,7.20
2023-04-09T21:22:57.975Z,7.20
2023-04-09T21:25:43.397Z,7.10
2023-04-09T21:28:27.220Z,7.00
2023-04-09T21:31:09.850Z,7.00
2023-04-09T21:33:55.818Z,7.00
2023-04-09T21:36:32.555Z,7.00
2023-04-09T21:39:30.815Z,6.80
2023-04-09T21:42:19.562Z,6.80
2023-04-09T21:45:17.198Z,6.90
2023-04-09T21:47:53.484Z,6.80
2023-04-09T21:50:51.213Z,6.70
2023-04-09T21:53:28.293Z,6.60
2023-04-09T21:56:12.182Z,6.60
2023-04-09T21:58:56.323Z,6.70
2023-04-09T22:01:29.686Z,6.60
2023-04-09T22:04:15.437Z,6.60
2023-04-09T22:07:05.834Z,6.60
2023-04-09T22:09:42.513Z,6.50
2023-04-09T22:12:45.275Z,6.50
2023-04-09T22:21:35.663Z,6.40
2023-04-09T22:24:15.729Z,6.40
2023-04-09T22:29:48.245Z,6.30
2023-04-09T22:32:17.938Z,6.20
2023-04-09T22:34:52.185Z,6.20
2023-04-09T22:37:24.917Z,6.00
2023-04-09T22:39:55.483Z,5.90
2023-04-09T22:42:30.692Z,5.80
2023-04-09T22:45:03.807Z,5.70
2023-04-09T22:47:43.943Z,5.80
2023-04-09T22:50:16.075Z,5.70
2023-04-09T22:52:49.216Z,5.70
2023-04-09T22:55:31.328Z,5.60
2023-04-09T22:58:03.086Z,5.50
2023-04-09T23:00:51.300Z,5.40
2023-04-09T23:03:24.649Z,5.50
2023-04-09T23:06:02.589Z,5.50
2023-04-09T23:08:57.295Z,5.40
2023-04-09T23:11:53.626Z,5.50
2023-04-09T23:14:29.304Z,5.50
2023-04-09T23:19:57.928Z,5.40
2023-04-09T23:22:29.187Z,5.40
2023-04-09T23:25:06.487Z,5.30
2023-04-09T23:27:38.240Z,5.40
2023-04-09T23:30:07.718Z,5.40
2023-04-09T23:32:38.277Z,5.40
2023-04-09T23:35:09.603Z,5.30
2023-04-09T23:37:39.254Z,5.30
2023-04-09T23:40:09.798Z,5.30
2023-04-09T23:42:44.788Z,5.20
2023-04-09T23:45:13.459Z,5.20
2023-04-09T23:47:42.766Z,5.10
2023-04-09T23:50:12.608Z,5.10
2023-04-09T23:52:45.715Z,4.90
2023-04-09T23:55:14.262Z,4.80
2023-04-09T23:57:44.951Z,4.80
